Time;durP1;ratioP1;P1;durP2;ratioP2;P2;SDS_P1;SDS_P2;PMS_P1;PMS_P2;Temp;Humidity;BMP_temperature;BMP_pressure;BME280_temperature;BME280_humidity;BME280_pressure;Samples;Min_cycle;Max_cycle;Signal;HPM_P1;HPM_P2
2022/06/22 00:01:05;;;;;;;5.82;5.32;;;12.90;99.90;;;;;;4975974;28;20058;-79
2022/06/22 00:03:32;;;;;;;6.35;4.75;;;12.80;99.90;;;;;;4981426;28;20081;-75
2022/06/22 00:05:58;;;;;;;5.95;4.82;;;12.80;99.90;;;;;;4980208;28;20108;-78
2022/06/22 00:08:35;;;;;;;7.35;4.57;;;12.70;99.90;;;;;;4965738;28;20058;-76
2022/06/22 00:11:06;;;;;;;4.30;3.90;;;12.70;99.90;;;;;;4984931;28;20042;-78
2022/06/22 00:13:33;;;;;;;5.93;4.22;;;12.50;99.90;;;;;;4976288;28;20043;-78
2022/06/22 00:16:03;;;;;;;4.43;3.30;;;12.50;99.90;;;;;;4953273;28;20121;-77
2022/06/22 00:18:59;;;;;;;4.75;2.80;;;12.40;99.90;;;;;;4973140;28;20054;-79
2022/06/22 00:21:28;;;;;;;4.00;3.60;;;12.50;99.90;;;;;;4956406;28;20066;-75
2022/06/22 00:23:57;;;;;;;4.82;3.72;;;12.50;99.90;;;;;;4971550;28;20192;-76
2022/06/22 00:26:23;;;;;;;2.92;2.58;;;12.50;99.90;;;;;;4960350;28;20385;-77
2022/06/22 00:29:16;;;;;;;3.78;3.38;;;12.40;99.90;;;;;;4979990;28;20061;-80
2022/06/22 00:31:47;;;;;;;5.03;3.33;;;12.40;99.90;;;;;;4958888;28;20054;-78
2022/06/22 00:34:42;;;;;;;4.78;3.92;;;12.40;99.90;;;;;;4973769;28;20084;-78
2022/06/22 00:37:16;;;;;;;5.05;4.55;;;12.30;99.90;;;;;;4978865;28;20159;-77
2022/06/22 00:39:48;;;;;;;6.78;4.82;;;12.30;99.90;;;;;;4987889;28;20042;-74
2022/06/22 00:42:21;;;;;;;4.35;3.90;;;12.20;99.90;;;;;;4991198;28;20050;-78
2022/06/22 00:44:59;;;;;;;6.55;4.75;;;12.10;99.90;;;;;;4957656;28;20169;-78
2022/06/22 00:47:28;;;;;;;5.63;4.90;;;12.00;99.90;;;;;;4968259;28;20047;-78
2022/06/22 00:50:14;;;;;;;5.65;5.07;;;11.90;99.90;;;;;;4976222;28;20809;-78
2022/06/22 00:52:51;;;;;;;7.90;5.60;;;11.90;99.90;;;;;;4982038;28;20050;-74
2022/06/22 00:55:30;;;;;;;7.35;5.78;;;11.90;99.90;;;;;;4980864;28;20050;-74
2022/06/22 00:58:39;;;;;;;5.60;5.10;;;11.90;99.90;;;;;;4982076;28;20081;-79
2022/06/22 01:01:38;;;;;;;7.72;6.65;;;11.90;99.90;;;;;;4967372;28;20090;-78
2022/06/22 01:04:24;;;;;;;6.10;4.95;;;11.80;99.90;;;;;;4970476;28;20447;-74
2022/06/22 01:06:58;;;;;;;6.65;4.75;;;11.90;99.90;;;;;;4970592;28;21179;-78
2022/06/22 01:09:59;;;;;;;5.82;4.60;;;11.80;99.90;;;;;;4983652;28;20054;-78
2022/06/22 01:12:45;;;;;;;7.13;5.50;;;11.80;99.90;;;;;;4898655;29;20495;-78
2022/06/22 01:15:30;;;;;;;6.65;5.70;;;11.70;99.90;;;;;;4972551;28;20129;-77
2022/06/22 01:18:20;;;;;;;5.38;4.63;;;11.70;99.90;;;;;;4980467;28;20058;-79
2022/06/22 01:20:48;;;;;;;8.18;5.10;;;11.70;99.90;;;;;;4980104;28;20137;-78
2022/06/22 01:23:32;;;;;;;7.65;5.78;;;11.70;99.90;;;;;;4985075;28;20638;-78
2022/06/22 01:26:05;;;;;;;;;;;11.70;99.90;;;;;;4979962;28;20130;-76
2022/06/22 01:28:31;;;;;;;7.35;5.00;;;11.70;99.90;;;;;;4978425;28;19941;-80
2022/06/22 01:31:11;;;;;;;3.33;2.88;;;11.70;99.90;;;;;;4962853;28;20805;-75
2022/06/22 01:33:41;;;;;;;7.40;3.30;;;11.70;99.90;;;;;;4978334;28;20050;-77
2022/06/22 01:36:28;;;;;;;4.13;3.72;;;11.60;99.90;;;;;;4980730;28;20115;-78
2022/06/22 01:38:55;;;;;;;3.75;3.10;;;11.50;99.90;;;;;;4978673;28;20050;-78
2022/06/22 01:41:39;;;;;;;3.38;2.97;;;11.40;99.90;;;;;;4960061;28;20046;-77
2022/06/22 01:44:22;;;;;;;5.18;4.30;;;11.50;99.90;;;;;;4970188;28;20069;-77
2022/06/22 01:47:08;;;;;;;;;;;11.50;99.90;;;;;;4971917;28;20054;-77
2022/06/22 01:49:59;;;;;;;5.38;4.75;;;11.40;99.90;;;;;;4973426;28;19930;-76
2022/06/22 01:52:51;;;;;;;4.68;3.67;;;11.30;99.90;;;;;;4974137;28;20153;-74
2022/06/22 01:56:00;;;;;;;10.02;5.03;;;11.30;99.90;;;;;;4983759;28;20053;-76
2022/06/22 01:58:51;;;;;;;4.75;4.13;;;11.20;99.90;;;;;;4981026;28;20046;-79
2022/06/22 02:01:58;;;;;;;6.05;4.72;;;11.10;99.90;;;;;;4973199;28;20054;-77
2022/06/22 02:04:29;;;;;;;5.65;4.88;;;11.10;99.90;;;;;;4969996;28;20145;-76
2022/06/22 02:09:52;;;;;;;5.93;5.28;;;11.00;99.90;;;;;;4969866;28;20751;-78
2022/06/22 02:12:19;;;;;;;7.18;5.13;;;11.10;99.90;;;;;;4973878;28;20051;-76
2022/06/22 02:14:51;;;;;;;7.93;5.35;;;11.00;99.90;;;;;;4971940;28;20046;-75
2022/06/22 02:17:24;;;;;;;8.63;4.88;;;10.90;99.90;;;;;;4964154;28;20157;-76
2022/06/22 02:20:23;;;;;;;5.05;4.60;;;10.90;99.90;;;;;;4971883;28;20755;-78
2022/06/22 02:22:54;;;;;;;24.90;7.90;;;10.90;99.90;;;;;;4976586;28;20093;-78
2022/06/22 02:25:21;;;;;;;59.13;12.48;;;10.90;99.90;;;;;;4965802;28;20062;-79
2022/06/22 02:27:47;;;;;;;62.17;13.43;;;10.80;99.90;;;;;;4962518;28;21266;-77
2022/06/22 02:30:12;;;;;;;18.77;7.88;;;10.80;99.90;;;;;;4979282;28;20149;-80
2022/06/22 02:32:42;;;;;;;9.43;6.93;;;10.80;99.90;;;;;;4939974;28;20050;-77
2022/06/22 02:35:11;;;;;;;32.75;7.93;;;10.80;99.90;;;;;;4970589;28;20049;-79
2022/06/22 02:37:42;;;;;;;37.80;10.02;;;10.80;99.90;;;;;;4980727;28;20583;-75
2022/06/22 02:40:14;;;;;;;11.93;7.28;;;10.70;99.90;;;;;;4984749;28;20053;-79
2022/06/22 02:45:27;;;;;;;15.88;6.78;;;10.70;99.90;;;;;;4979413;28;20042;-80
2022/06/22 02:47:56;;;;;;;9.60;7.07;;;10.60;99.90;;;;;;4974883;28;20843;-78
2022/06/22 02:50:41;;;;;;;7.90;5.78;;;10.60;99.90;;;;;;4977576;28;20428;-80
2022/06/22 02:53:31;;;;;;;13.40;7.15;;;10.60;99.90;;;;;;4981583;28;20054;-78
2022/06/22 02:55:57;;;;;;;11.38;6.20;;;10.60;99.90;;;;;;4976081;28;20270;-74
2022/06/22 02:58:30;;;;;;;10.52;6.40;;;10.70;99.90;;;;;;4981655;28;20140;-78
2022/06/22 03:00:58;;;;;;;11.93;6.47;;;10.70;99.90;;;;;;4981510;28;20127;-79
2022/06/22 03:03:24;;;;;;;7.38;5.45;;;10.70;99.90;;;;;;4974520;28;20243;-78
2022/06/22 03:05:53;;;;;;;5.68;4.07;;;10.70;99.90;;;;;;4977993;28;20046;-78
2022/06/22 03:08:19;;;;;;;6.45;4.97;;;10.60;99.90;;;;;;4984886;28;20046;-79
2022/06/22 03:10:55;;;;;;;7.35;4.82;;;10.60;99.90;;;;;;4979601;28;20046;-78
2022/06/22 03:13:28;;;;;;;5.57;4.00;;;10.60;99.90;;;;;;4975802;28;20054;-77
2022/06/22 03:15:55;;;;;;;3.92;2.85;;;10.60;99.90;;;;;;4974255;28;20058;-77
2022/06/22 03:18:26;;;;;;;4.57;3.78;;;10.60;99.90;;;;;;4979968;28;20108;-76
2022/06/22 03:21:00;;;;;;;7.07;3.67;;;10.60;99.90;;;;;;4966322;28;20072;-77
2022/06/22 03:23:48;;;;;;;6.70;4.97;;;10.50;99.90;;;;;;4978957;28;20239;-77
2022/06/22 03:26:29;;;;;;;7.28;5.22;;;10.50;99.90;;;;;;4980208;28;20124;-76
2022/06/22 03:29:10;;;;;;;6.18;4.22;;;10.50;99.90;;;;;;4955470;28;20132;-79
2022/06/22 03:31:48;;;;;;;6.40;4.80;;;10.50;99.90;;;;;;4982841;28;20145;-77
2022/06/22 03:34:19;;;;;;;7.93;5.15;;;10.40;99.90;;;;;;4991243;28;20158;-77
2022/06/22 03:36:57;;;;;;;9.07;6.28;;;10.40;99.90;;;;;;4985817;28;20052;-78
2022/06/22 03:39:28;;;;;;;10.65;7.15;;;10.40;99.90;;;;;;4985177;28;20116;-77
2022/06/22 03:42:01;;;;;;;6.50;4.80;;;10.40;99.90;;;;;;4959969;28;20141;-78
2022/06/22 03:44:37;;;;;;;7.50;5.78;;;10.40;99.90;;;;;;4984357;28;20050;-78
2022/06/22 03:47:21;;;;;;;7.72;6.07;;;10.40;99.90;;;;;;4973933;28;20042;-79
2022/06/22 03:50:03;;;;;;;5.47;4.75;;;10.30;99.90;;;;;;4968666;28;20042;-79
2022/06/22 03:52:42;;;;;;;7.57;5.00;;;10.20;99.90;;;;;;4977706;28;20165;-76
2022/06/22 03:55:13;;;;;;;6.75;5.55;;;10.20;99.90;;;;;;4977698;28;20450;-79
2022/06/22 03:57:43;;;;;;;6.05;4.53;;;10.20;99.90;;;;;;4972603;28;20674;-80
2022/06/22 04:00:11;;;;;;;6.97;5.28;;;10.20;99.90;;;;;;4976680;28;20050;-79
2022/06/22 04:02:37;;;;;;;7.25;5.63;;;10.30;99.90;;;;;;4979147;28;20092;-79
2022/06/22 04:05:04;;;;;;;10.40;7.38;;;10.40;99.90;;;;;;4976640;28;20094;-80
2022/06/22 04:07:37;;;;;;;16.92;8.95;;;10.50;99.90;;;;;;4981135;28;20781;-76
2022/06/22 04:10:05;;;;;;;11.73;7.32;;;10.70;99.90;;;;;;4985206;28;20495;-80
2022/06/22 04:12:40;;;;;;;13.68;7.60;;;10.70;99.90;;;;;;4960237;28;20766;-80
2022/06/22 04:15:18;;;;;;;10.57;6.47;;;10.90;99.90;;;;;;4969883;28;20042;-81
2022/06/22 04:17:50;;;;;;;17.70;10.13;;;10.90;99.90;;;;;;4977487;28;20046;-78
2022/06/22 04:20:56;;;;;;;11.95;9.50;;;11.10;99.90;;;;;;4986704;28;20043;-80
2022/06/22 04:23:27;;;;;;;14.63;9.35;;;11.30;99.90;;;;;;4984230;28;20076;-76
2022/06/22 04:25:57;;;;;;;10.93;6.88;;;11.30;99.90;;;;;;4966248;28;20058;-78
2022/06/22 04:28:25;;;;;;;16.38;9.48;;;11.40;99.90;;;;;;4965723;28;20055;-79
2022/06/22 04:30:53;;;;;;;28.42;11.27;;;11.60;99.90;;;;;;4960350;28;20054;-79
2022/06/22 04:33:35;;;;;;;10.13;7.78;;;11.70;99.90;;;;;;4988226;28;20065;-77
2022/06/22 04:36:07;;;;;;;15.27;7.97;;;11.70;99.90;;;;;;4987789;28;20065;-79
2022/06/22 04:38:36;;;;;;;12.40;8.02;;;11.80;99.90;;;;;;4966774;28;20146;-76
2022/06/22 04:41:25;;;;;;;16.35;8.77;;;11.90;99.90;;;;;;4989194;28;20164;-78
2022/06/22 04:43:52;;;;;;;10.00;6.28;;;11.90;99.90;;;;;;4968007;28;20125;-79
2022/06/22 04:46:27;;;;;;;12.93;7.68;;;11.90;99.90;;;;;;4983771;28;20078;-76
2022/06/22 04:48:56;;;;;;;11.52;8.00;;;12.00;99.90;;;;;;4975889;28;20053;-77
2022/06/22 04:51:35;;;;;;;21.10;8.93;;;12.00;99.90;;;;;;4975613;28;20074;-76
2022/06/22 04:54:10;;;;;;;9.98;7.35;;;12.00;99.90;;;;;;4971432;28;20121;-78
2022/06/22 04:56:41;;;;;;;10.30;7.65;;;12.10;99.90;;;;;;4973801;28;20042;-80
2022/06/22 04:59:10;;;;;;;7.78;5.82;;;12.10;99.90;;;;;;4970546;28;21082;-80
2022/06/22 05:01:45;;;;;;;9.45;7.03;;;12.20;99.90;;;;;;4977064;28;20049;-78
2022/06/22 05:04:18;;;;;;;21.38;9.18;;;12.30;99.90;;;;;;4964264;28;20690;-78
2022/06/22 05:07:22;;;;;;;12.27;6.85;;;12.40;99.90;;;;;;4981946;28;20054;-77
2022/06/22 05:10:06;;;;;;;8.13;6.70;;;12.50;99.90;;;;;;4976572;28;20061;-79
2022/06/22 05:13:09;;;;;;;20.00;8.57;;;12.60;99.90;;;;;;4967820;28;20057;-78
2022/06/22 05:15:38;;;;;;;37.55;10.43;;;12.80;99.90;;;;;;4966313;28;20054;-75
2022/06/22 05:18:17;;;;;;;10.60;7.13;;;12.90;99.90;;;;;;4975561;28;20062;-78
2022/06/22 05:21:09;;;;;;;9.68;7.60;;;13.00;99.90;;;;;;4983831;28;20048;-79
2022/06/22 05:23:36;;;;;;;8.35;6.55;;;13.10;99.90;;;;;;4944121;28;20042;-75
2022/06/22 05:26:05;;;;;;;12.07;8.23;;;13.10;99.90;;;;;;4973187;28;20061;-78
2022/06/22 05:28:38;;;;;;;7.93;6.55;;;13.20;99.90;;;;;;4978671;28;20047;-78
2022/06/22 05:31:12;;;;;;;;;;;13.30;99.90;;;;;;4976220;28;20058;-79
2022/06/22 05:33:39;;;;;;;;;;;13.40;99.90;;;;;;4978502;28;20044;-74
2022/06/22 05:36:11;;;;;;;10.25;7.75;;;13.50;99.90;;;;;;4988842;28;19933;-74
2022/06/22 05:38:44;;;;;;;8.50;7.10;;;13.60;99.90;;;;;;4988667;28;20046;-75
2022/06/22 05:41:12;;;;;;;11.60;8.00;;;13.70;99.90;;;;;;4984449;28;20381;-78
2022/06/22 05:43:39;;;;;;;10.98;8.18;;;13.80;99.90;;;;;;4982131;28;20050;-74
2022/06/22 05:46:06;;;;;;;12.93;9.07;;;14.00;99.90;;;;;;4988460;28;20045;-74
2022/06/22 05:48:40;;;;;;;11.40;8.40;;;14.10;99.90;;;;;;4979209;28;20057;-78
2022/06/22 05:51:35;;;;;;;11.35;8.63;;;14.20;99.90;;;;;;4987302;28;20053;-75
2022/06/22 05:54:16;;;;;;;13.15;8.90;;;14.30;99.90;;;;;;4982253;28;20442;-78
2022/06/22 05:56:51;;;;;;;13.38;9.85;;;14.40;99.90;;;;;;4977645;28;20050;-77
2022/06/22 05:59:36;;;;;;;12.90;8.10;;;14.50;99.90;;;;;;4979336;28;20046;-78
2022/06/22 06:02:23;;;;;;;12.45;8.73;;;14.60;99.90;;;;;;4977385;28;20521;-78
2022/06/22 06:05:15;;;;;;;11.45;8.50;;;14.80;99.90;;;;;;4984052;28;20077;-79
2022/06/22 06:07:46;;;;;;;15.10;9.35;;;15.00;99.90;;;;;;4960184;28;20054;-78
2022/06/22 06:10:28;;;;;;;12.98;9.23;;;15.30;99.90;;;;;;4982251;28;20054;-77
2022/06/22 06:12:57;;;;;;;16.23;9.63;;;15.60;99.90;;;;;;4984058;28;20115;-76
2022/06/22 06:15:23;;;;;;;14.98;9.63;;;15.90;99.90;;;;;;4972641;28;20080;-75
2022/06/22 06:17:53;;;;;;;13.48;8.20;;;16.20;99.90;;;;;;4984410;28;20062;-75
2022/06/22 06:20:30;;;;;;;12.75;7.47;;;16.90;99.90;;;;;;4977361;28;20046;-79
2022/06/22 06:23:10;;;;;;;11.75;8.00;;;18.40;99.90;;;;;;4980291;28;20062;-76
2022/06/22 06:28:39;;;;;;;8.80;7.10;;;20.50;99.90;;;;;;4626218;28;10000551;-76
2022/06/22 06:31:14;;;;;;;10.23;7.93;;;21.50;99.90;;;;;;4977557;28;20091;-77
2022/06/22 06:33:40;;;;;;;10.85;7.13;;;21.70;99.90;;;;;;4980750;28;20057;-74
2022/06/22 06:36:11;;;;;;;7.32;6.45;;;22.10;99.90;;;;;;4981134;28;20093;-76
2022/06/22 06:38:43;;;;;;;8.75;6.45;;;22.70;99.90;;;;;;4961701;28;20412;-77
2022/06/22 06:41:09;;;;;;;7.93;5.70;;;23.30;99.90;;;;;;4984766;28;20220;-78
2022/06/22 06:43:37;;;;;;;11.73;6.07;;;23.80;99.90;;;;;;4982462;28;20289;-75
2022/06/22 06:46:21;;;;;;;5.70;4.97;;;24.30;99.90;;;;;;4986656;28;20517;-78
2022/06/22 06:48:57;;;;;;;9.05;6.05;;;24.70;98.10;;;;;;4980032;28;20042;-78
2022/06/22 06:51:24;;;;;;;8.77;6.30;;;25.40;98.50;;;;;;4977864;28;20125;-80
2022/06/22 06:53:55;;;;;;;9.68;5.53;;;25.90;97.50;;;;;;4978229;28;20140;-74
2022/06/22 06:56:34;;;;;;;8.35;5.60;;;26.10;96.40;;;;;;4963607;28;20149;-73
2022/06/22 06:59:05;;;;;;;9.10;6.13;;;26.40;93.40;;;;;;4982315;28;20153;-78
2022/06/22 07:01:35;;;;;;;7.87;6.17;;;26.50;92.10;;;;;;4976897;28;20061;-76
2022/06/22 07:04:39;;;;;;;6.85;5.03;;;26.00;92.00;;;;;;4982239;28;20304;-78
2022/06/22 07:07:40;;;;;;;5.55;4.82;;;26.00;84.90;;;;;;4976811;28;20112;-78
2022/06/22 07:10:13;;;;;;;9.07;4.88;;;25.70;89.10;;;;;;4985562;28;20057;-77
2022/06/22 07:12:58;;;;;;;6.05;4.10;;;26.10;90.70;;;;;;4984460;28;20157;-77
2022/06/22 07:15:49;;;;;;;6.85;4.25;;;26.60;87.50;;;;;;4976776;28;20861;-78
2022/06/22 07:18:33;;;;;;;7.03;4.57;;;25.50;84.30;;;;;;4983230;28;21574;-75
2022/06/22 07:21:14;;;;;;;7.07;5.32;;;25.60;88.20;;;;;;4967219;28;20796;-75
2022/06/22 07:23:49;;;;;;;6.63;4.82;;;25.50;89.40;;;;;;4972505;28;20054;-77
2022/06/22 07:26:48;;;;;;;4.45;4.05;;;25.80;89.10;;;;;;4973125;28;20057;-76
2022/06/22 07:29:43;;;;;;;5.03;3.97;;;26.50;84.50;;;;;;4968200;28;20046;-74
2022/06/22 07:32:27;;;;;;;7.22;4.75;;;26.90;86.40;;;;;;4974304;28;20049;-79
2022/06/22 07:35:20;;;;;;;7.45;4.82;;;27.00;83.90;;;;;;4975170;28;20353;-78
2022/06/22 07:38:19;;;;;;;9.60;5.15;;;26.30;82.20;;;;;;4975401;28;20053;-75
2022/06/22 07:43:33;;;;;;;6.18;4.93;;;25.90;88.20;;;;;;4975988;28;20157;-76
2022/06/22 07:45:59;;;;;;;8.85;4.03;;;25.60;88.20;;;;;;4986301;28;20049;-75
2022/06/22 07:48:26;;;;;;;6.25;3.58;;;26.40;87.50;;;;;;4967219;28;20228;-77
2022/06/22 07:50:55;;;;;;;5.60;4.25;;;27.20;85.80;;;;;;4981500;28;20090;-77
2022/06/22 07:53:44;;;;;;;5.20;4.65;;;27.60;84.20;;;;;;4978384;28;20072;-75
2022/06/22 07:56:14;;;;;;;8.55;4.72;;;27.50;79.30;;;;;;4981668;28;20053;-78
2022/06/22 07:58:57;;;;;;;5.68;5.05;;;27.30;83.80;;;;;;4976162;28;20046;-78
2022/06/22 08:01:40;;;;;;;7.68;5.28;;;27.60;82.70;;;;;;4978545;28;20145;-78
2022/06/22 08:04:31;;;;;;;7.82;4.78;;;28.20;80.60;;;;;;4975372;28;20050;-76
2022/06/22 08:07:08;;;;;;;7.82;4.97;;;28.70;80.00;;;;;;4986199;28;20117;-77
2022/06/22 08:09:36;;;;;;;6.07;4.55;;;28.60;79.00;;;;;;4979533;28;20050;-76
2022/06/22 08:12:09;;;;;;;5.15;4.65;;;28.50;80.20;;;;;;4971952;28;20433;-77
2022/06/22 08:14:45;;;;;;;8.73;5.45;;;27.90;80.80;;;;;;4978554;28;20124;-79
2022/06/22 08:17:39;;;;;;;8.18;5.32;;;28.10;78.80;;;;;;4968237;28;20046;-77
2022/06/22 08:20:06;;;;;;;6.75;4.63;;;27.20;78.30;;;;;;4980238;28;20550;-77
2022/06/22 08:22:39;;;;;;;8.25;4.80;;;26.50;82.20;;;;;;4951408;28;20122;-79
2022/06/22 08:25:08;;;;;;;4.90;4.40;;;26.60;82.30;;;;;;4976181;28;20216;-75
2022/06/22 08:27:34;;;;;;;12.30;4.93;;;26.90;81.60;;;;;;4979932;28;20046;-78
2022/06/22 08:30:01;;;;;;;4.50;4.10;;;27.40;80.80;;;;;;4968850;28;20050;-78
2022/06/22 08:32:42;;;;;;;6.32;3.95;;;26.50;80.00;;;;;;4984461;28;20100;-78
2022/06/22 08:35:26;;;;;;;7.68;3.35;;;26.40;76.70;;;;;;4980726;28;20855;-78
2022/06/22 08:37:56;;;;;;;4.43;3.70;;;26.50;77.10;;;;;;4973357;28;20049;-79
2022/06/22 08:40:29;;;;;;;7.88;3.63;;;27.20;78.90;;;;;;4978951;28;20127;-77
2022/06/22 08:42:59;;;;;;;;;;;27.70;79.60;;;;;;4979538;28;20836;-77
2022/06/22 08:45:44;;;;;;;6.35;3.63;;;26.80;74.40;;;;;;4992652;28;19937;-77
2022/06/22 08:48:10;;;;;;;3.25;2.65;;;26.60;78.30;;;;;;4990645;28;20123;-79
2022/06/22 08:50:55;;;;;;;3.47;3.03;;;26.50;79.50;;;;;;4994512;28;20046;-75
2022/06/22 08:53:53;;;;;;;5.45;3.20;;;26.50;76.80;;;;;;4989837;28;20054;-75
2022/06/22 08:56:38;;;;;;;9.60;4.40;;;26.90;74.30;;;;;;4982663;28;20092;-77
2022/06/22 08:59:18;;;;;;;5.70;3.70;;;26.30;74.10;;;;;;4989595;28;20145;-78
2022/06/22 09:01:54;;;;;;;6.18;3.67;;;25.70;77.70;;;;;;4983558;28;20128;-75
2022/06/22 09:04:22;;;;;;;7.88;3.60;;;26.10;79.10;;;;;;4991838;28;20046;-75
2022/06/22 09:07:13;;;;;;;7.05;4.10;;;27.10;78.30;;;;;;4982005;28;20054;-78
2022/06/22 09:09:42;;;;;;;6.32;4.13;;;26.50;76.40;;;;;;4983564;28;20041;-78
2022/06/22 09:12:28;;;;;;;4.10;3.38;;;26.40;74.90;;;;;;4981627;28;20062;-75
2022/06/22 09:15:28;;;;;;;9.48;4.78;;;26.60;75.30;;;;;;4980472;28;20038;-75
2022/06/22 09:18:13;;;;;;;7.57;4.07;;;26.60;74.80;;;;;;4979960;28;20050;-77
2022/06/22 09:21:01;;;;;;;8.50;4.10;;;26.50;76.20;;;;;;4984303;28;20073;-78
2022/06/22 09:23:39;;;;;;;6.60;4.28;;;26.50;75.90;;;;;;4943895;28;20137;-78
2022/06/22 09:26:24;;;;;;;5.68;3.88;;;26.50;77.50;;;;;;4922268;28;20122;-75
2022/06/22 09:28:58;;;;;;;7.47;4.60;;;26.60;76.00;;;;;;4930503;28;20043;-76
2022/06/22 09:31:51;;;;;;;9.18;4.28;;;27.00;76.60;;;;;;4930426;28;20127;-75
2022/06/22 09:34:22;;;;;;;8.45;5.20;;;27.50;74.60;;;;;;4938601;29;20051;-78
2022/06/22 09:36:58;;;;;;;6.43;3.80;;;27.20;75.30;;;;;;4925768;28;20078;-75
2022/06/22 09:39:51;;;;;;;8.35;3.85;;;27.60;74.30;;;;;;4931905;29;20126;-77
2022/06/22 09:42:41;;;;;;;3.97;3.58;;;27.60;72.30;;;;;;4929808;29;20043;-78
2022/06/22 09:45:31;;;;;;;9.77;4.63;;;27.40;72.60;;;;;;4934174;28;20051;-78
2022/06/22 09:48:12;;;;;;;6.65;3.95;;;27.10;72.70;;;;;;4931229;29;20047;-75
2022/06/22 09:51:04;;;;;;;9.80;3.97;;;27.00;73.50;;;;;;4936983;29;20228;-74
2022/06/22 09:53:41;;;;;;;4.82;3.63;;;26.80;74.40;;;;;;4930704;29;20051;-74
2022/06/22 09:56:33;;;;;;;5.28;3.90;;;26.90;75.70;;;;;;4927926;28;20651;-78
2022/06/22 09:59:17;;;;;;;4.80;3.90;;;26.20;76.10;;;;;;4936866;28;20090;-76
2022/06/22 10:01:51;;;;;;;6.28;3.92;;;26.90;75.60;;;;;;4927243;28;20051;-77
2022/06/22 10:04:32;;;;;;;4.68;3.75;;;26.90;73.40;;;;;;4931009;29;20126;-77
2022/06/22 10:07:18;;;;;;;4.65;3.17;;;26.60;75.10;;;;;;4935498;29;20097;-75
2022/06/22 10:09:53;;;;;;;5.65;3.80;;;27.10;74.00;;;;;;4932258;29;20518;-76
2022/06/22 10:12:35;;;;;;;7.43;3.42;;;27.00;75.70;;;;;;4932373;29;20039;-77
2022/06/22 10:15:25;;;;;;;5.90;4.40;;;27.20;74.40;;;;;;4930298;29;20142;-74
2022/06/22 10:18:08;;;;;;;6.43;3.92;;;26.50;73.80;;;;;;4928268;29;20892;-76
2022/06/22 10:21:01;;;;;;;5.53;3.47;;;26.90;73.80;;;;;;4932602;28;20047;-75
2022/06/22 10:23:35;;;;;;;6.63;4.03;;;27.40;73.70;;;;;;4924187;29;20110;-77
2022/06/22 10:26:19;;;;;;;6.45;4.15;;;27.30;74.50;;;;;;4923773;29;20105;-76
2022/06/22 10:29:00;;;;;;;6.57;3.92;;;27.70;73.80;;;;;;4929220;29;20142;-79
2022/06/22 10:31:36;;;;;;;9.30;4.07;;;27.50;71.60;;;;;;4927194;29;20059;-75
2022/06/22 10:34:27;;;;;;;7.03;4.53;;;27.70;73.30;;;;;;4922576;28;20059;-78
2022/06/22 10:37:14;;;;;;;5.15;3.45;;;27.30;71.40;;;;;;4925930;28;20051;-73
2022/06/22 10:47:09;;;;;;;6.20;3.92;;;27.40;72.50;;;;;;4900010;29;20062;-75
2022/06/22 10:49:44;;;;;;;4.40;3.60;;;27.50;72.90;;;;;;4933940;28;20718;-75
2022/06/22 10:52:35;;;;;;;7.38;4.07;;;27.60;73.60;;;;;;4935015;29;20594;-75
2022/06/22 10:55:10;;;;;;;7.63;4.70;;;27.60;72.80;;;;;;4928616;29;20051;-76
2022/06/22 10:57:56;;;;;;;10.45;3.58;;;27.00;71.70;;;;;;4923022;29;20051;-75
2022/06/22 11:00:59;;;;;;;6.93;4.35;;;26.70;72.60;;;;;;4932112;28;20463;-74
2022/06/22 11:03:58;;;;;;;7.88;3.58;;;26.90;73.00;;;;;;4923967;29;20071;-78
2022/06/22 11:06:38;;;;;;;7.40;4.07;;;26.50;74.00;;;;;;4925976;28;20079;-76
2022/06/22 11:09:17;;;;;;;6.88;3.97;;;26.40;73.20;;;;;;4926454;28;20059;-75
2022/06/22 11:11:57;;;;;;;6.60;4.18;;;26.50;72.00;;;;;;4929959;29;20826;-77
2022/06/22 11:14:35;;;;;;;7.18;3.50;;;26.30;71.90;;;;;;4925178;29;20083;-74
2022/06/22 11:17:35;;;;;;;4.05;3.38;;;26.50;72.50;;;;;;4924826;28;20090;-76
2022/06/22 11:20:41;;;;;;;9.88;4.32;;;26.70;71.60;;;;;;4931773;29;20153;-75
2022/06/22 11:23:12;;;;;;;7.75;3.67;;;26.70;73.10;;;;;;4970534;28;20136;-79
2022/06/22 11:32:04;;;;;;;5.97;3.80;;;26.00;72.30;;;;;;4975058;28;20117;-77
2022/06/22 11:35:05;;;;;;;6.28;3.72;;;25.90;71.10;;;;;;4979544;28;20107;-78
2022/06/22 11:37:58;;;;;;;7.10;3.35;;;26.10;71.30;;;;;;4978335;28;20058;-77
2022/06/22 11:40:27;;;;;;;4.88;3.75;;;26.30;73.00;;;;;;4964529;28;20153;-77
2022/06/22 11:43:15;;;;;;;5.53;3.42;;;26.10;70.20;;;;;;4974438;28;20171;-76
2022/06/22 11:46:11;;;;;;;5.93;3.47;;;26.20;71.00;;;;;;4949123;28;20038;-77
2022/06/22 11:48:59;;;;;;;4.13;3.58;;;26.10;71.30;;;;;;4977309;28;20070;-78
2022/06/22 11:51:46;;;;;;;7.88;4.82;;;25.80;70.90;;;;;;4976230;28;20185;-75
2022/06/22 11:54:43;;;;;;;5.30;3.70;;;25.70;71.90;;;;;;4969575;28;20164;-79
2022/06/22 11:57:41;;;;;;;8.57;3.83;;;25.40;72.60;;;;;;4977823;28;20050;-74
2022/06/22 12:00:40;;;;;;;10.90;4.80;;;25.50;72.50;;;;;;4973523;28;20054;-77
2022/06/22 12:03:21;;;;;;;4.05;3.63;;;25.40;72.00;;;;;;4972932;28;20054;-75
2022/06/22 12:05:55;;;;;;;8.52;3.97;;;25.60;72.40;;;;;;4977373;28;20053;-77
2022/06/22 12:08:53;;;;;;;5.53;3.30;;;25.70;72.10;;;;;;4980696;28;20050;-77
2022/06/22 12:11:28;;;;;;;8.32;3.72;;;25.40;70.80;;;;;;4973698;28;20192;-75
2022/06/22 12:17:38;;;;;;;7.07;3.85;;;25.40;72.30;;;;;;4955702;28;20054;-75
2022/06/22 12:20:36;;;;;;;5.13;3.85;;;25.30;71.50;;;;;;4982023;28;20129;-76
2022/06/22 12:23:25;;;;;;;6.43;4.15;;;25.50;72.10;;;;;;4972622;28;20565;-77
2022/06/22 12:26:34;;;;;;;5.50;3.30;;;25.20;71.70;;;;;;4989840;28;20128;-76
2022/06/22 12:29:08;;;;;;;7.32;3.63;;;25.00;73.90;;;;;;4937279;28;20059;-74
2022/06/22 12:31:42;;;;;;;4.47;3.78;;;25.60;71.90;;;;;;4990837;28;20200;-75
2022/06/22 12:34:18;;;;;;;6.90;3.45;;;25.50;72.70;;;;;;4982128;28;20049;-75
2022/06/22 12:36:51;;;;;;;4.20;3.45;;;25.50;72.10;;;;;;4989220;28;20119;-79
2022/06/22 12:39:38;;;;;;;7.28;3.47;;;25.40;72.30;;;;;;4981192;28;20062;-79
2022/06/22 12:42:19;;;;;;;7.82;3.60;;;25.20;73.10;;;;;;4976840;28;20747;-78
2022/06/22 12:45:09;;;;;;;10.02;3.55;;;25.10;73.10;;;;;;4991330;28;20415;-75
2022/06/22 12:47:45;;;;;;;7.00;4.20;;;25.20;74.00;;;;;;4992983;28;20154;-74
2022/06/22 12:50:44;;;;;;;4.60;3.17;;;25.30;72.00;;;;;;4987641;28;20057;-74
2022/06/22 12:53:16;;;;;;;4.80;3.88;;;25.60;73.70;;;;;;4986565;28;20406;-75
2022/06/22 12:55:49;;;;;;;6.07;3.90;;;25.80;72.90;;;;;;4979413;28;20042;-75
2022/06/22 12:58:42;;;;;;;4.22;3.10;;;26.00;72.60;;;;;;4991533;28;20449;-74
2022/06/22 13:01:07;;;;;;;4.80;3.70;;;26.30;72.50;;;;;;4988435;28;20054;-75
2022/06/22 13:03:41;;;;;;;4.43;4.03;;;25.80;71.90;;;;;;4992098;28;20053;-74
2022/06/22 13:06:07;;;;;;;6.72;4.20;;;25.40;73.80;;;;;;4990160;28;20057;-76
2022/06/22 13:08:34;;;;;;;4.20;3.70;;;25.30;73.70;;;;;;4982312;28;20147;-74
2022/06/22 13:11:03;;;;;;;9.77;4.00;;;25.30;74.40;;;;;;4985103;28;20844;-77
2022/06/22 13:13:37;;;;;;;7.32;4.10;;;25.10;75.40;;;;;;4985334;28;20049;-76
2022/06/22 13:16:10;;;;;;;9.23;4.25;;;24.90;75.80;;;;;;4979586;28;20053;-78
2022/06/22 13:19:02;;;;;;;10.75;4.90;;;24.90;76.00;;;;;;4986157;28;20046;-75
2022/06/22 13:21:41;;;;;;;7.05;4.28;;;24.70;78.00;;;;;;4989501;28;20050;-76
2022/06/22 13:24:31;;;;;;;9.13;4.25;;;24.90;77.00;;;;;;4988868;28;20042;-77
2022/06/22 13:27:25;;;;;;;5.50;4.38;;;24.80;77.80;;;;;;4982826;28;21303;-78
2022/06/22 13:29:58;;;;;;;10.00;5.28;;;25.00;77.80;;;;;;4983736;28;20050;-76
2022/06/22 13:32:26;;;;;;;8.25;4.95;;;24.80;77.60;;;;;;4982999;28;20073;-77
2022/06/22 13:35:05;;;;;;;7.93;4.65;;;24.70;77.40;;;;;;4985954;28;20050;-78
2022/06/22 13:38:13;;;;;;;5.90;4.18;;;24.70;77.90;;;;;;4982883;28;20206;-75
2022/06/22 13:41:14;;;;;;;9.25;4.47;;;24.80;77.60;;;;;;4969191;28;20622;-75
2022/06/22 13:44:25;;;;;;;6.28;5.57;;;25.00;78.40;;;;;;4976889;28;20115;-76
2022/06/22 13:47:15;;;;;;;11.25;4.55;;;25.10;77.00;;;;;;4972405;28;20046;-74
2022/06/22 13:50:16;;;;;;;5.25;4.25;;;24.80;79.10;;;;;;4956775;28;20677;-75
2022/06/22 13:52:54;;;;;;;6.35;4.13;;;24.40;78.20;;;;;;4982614;28;20049;-75
2022/06/22 13:55:22;;;;;;;7.28;4.00;;;24.50;78.30;;;;;;4980707;28;20069;-76
2022/06/22 13:58:03;;;;;;;10.35;4.75;;;24.60;78.50;;;;;;4986571;28;20042;-74
2022/06/22 14:00:54;;;;;;;5.32;4.15;;;24.80;78.30;;;;;;4984329;28;20049;-74
2022/06/22 14:03:38;;;;;;;6.80;4.35;;;24.80;79.00;;;;;;4984351;28;20050;-75
2022/06/22 14:06:33;;;;;;;7.38;4.05;;;24.90;77.50;;;;;;4975756;28;20054;-76
2022/06/22 14:09:13;;;;;;;5.38;4.00;;;24.70;78.20;;;;;;4977473;28;20149;-74
2022/06/22 14:11:48;;;;;;;6.72;4.15;;;24.80;77.90;;;;;;4982091;28;20049;-74
2022/06/22 14:14:26;;;;;;;6.07;4.22;;;25.00;77.80;;;;;;4981231;28;20042;-75
2022/06/22 14:17:17;;;;;;;8.10;3.55;;;25.00;77.80;;;;;;4983909;28;20580;-75